sensor_id;sensor_type;location;lat;lon;timestamp;P1;durP1;ratioP1;P2;durP2;ratioP2
25125;SDS011;13106;50.808;5.670;2023-04-30T00:01:03;37.65;;;25.00;;
25125;SDS011;13106;50.808;5.670;2023-04-30T00:03:29;42.03;;;27.08;;
25125;SDS011;13106;50.808;5.670;2023-04-30T00:05:55;38.90;;;26.25;;
25125;SDS011;13106;50.808;5.670;2023-04-30T00:08:21;41.72;;;26.63;;
25125;SDS011;13106;50.808;5.670;2023-04-30T00:10:47;36.10;;;24.90;;
25125;SDS011;13106;50.808;5.670;2023-04-30T00:13:13;40.85;;;26.75;;
25125;SDS011;13106;50.808;5.670;2023-04-30T00:15:39;36.08;;;26.10;;
25125;SDS011;13106;50.808;5.670;2023-04-30T00:18:05;39.30;;;26.90;;
25125;SDS011;13106;50.808;5.670;2023-04-30T00:20:32;38.38;;;26.83;;
25125;SDS011;13106;50.808;5.670;2023-04-30T00:23:01;34.00;;;25.10;;
25125;SDS011;13106;50.808;5.670;2023-04-30T00:25:27;40.80;;;25.88;;
25125;SDS011;13106;50.808;5.670;2023-04-30T00:27:53;36.20;;;25.85;;
25125;SDS011;13106;50.808;5.670;2023-04-30T00:30:20;41.08;;;28.25;;
25125;SDS011;13106;50.808;5.670;2023-04-30T00:32:46;44.75;;;37.30;;
25125;SDS011;13106;50.808;5.670;2023-04-30T00:35:12;40.00;;;26.80;;
25125;SDS011;13106;50.808;5.670;2023-04-30T00:37:38;39.78;;;29.20;;
25125;SDS011;13106;50.808;5.670;2023-04-30T00:40:04;42.45;;;36.58;;
25125;SDS011;13106;50.808;5.670;2023-04-30T00:42:30;41.33;;;27.67;;
25125;SDS011;13106;50.808;5.670;2023-04-30T00:44:56;43.17;;;31.90;;
25125;SDS011;13106;50.808;5.670;2023-04-30T00:47:22;40.92;;;29.40;;
25125;SDS011;13106;50.808;5.670;2023-04-30T00:49:49;36.03;;;26.90;;
25125;SDS011;13106;50.808;5.670;2023-04-30T00:52:15;42.05;;;29.02;;
25125;SDS011;13106;50.808;5.670;2023-04-30T00:54:41;42.88;;;32.05;;
25125;SDS011;13106;50.808;5.670;2023-04-30T00:57:11;40.92;;;31.75;;
25125;SDS011;13106;50.808;5.670;2023-04-30T00:59:40;37.25;;;29.33;;
25125;SDS011;13106;50.808;5.670;2023-04-30T01:02:06;39.28;;;31.05;;
25125;SDS011;13106;50.808;5.670;2023-04-30T01:04:33;43.92;;;34.92;;
25125;SDS011;13106;50.808;5.670;2023-04-30T01:07:00;43.63;;;27.75;;
25125;SDS011;13106;50.808;5.670;2023-04-30T01:09:27;43.58;;;28.85;;
25125;SDS011;13106;50.808;5.670;2023-04-30T01:14:30;44.90;;;33.83;;
25125;SDS011;13106;50.808;5.670;2023-04-30T01:21:51;42.38;;;27.55;;
25125;SDS011;13106;50.808;5.670;2023-04-30T01:29:33;35.70;;;24.63;;
25125;SDS011;13106;50.808;5.670;2023-04-30T01:31:59;37.63;;;27.15;;
25125;SDS011;13106;50.808;5.670;2023-04-30T01:34:26;41.40;;;26.58;;
25125;SDS011;13106;50.808;5.670;2023-04-30T01:41:57;38.17;;;26.83;;
25125;SDS011;13106;50.808;5.670;2023-04-30T01:45:11;33.95;;;25.02;;
25125;SDS011;13106;50.808;5.670;2023-04-30T01:52:15;40.88;;;27.35;;
25125;SDS011;13106;50.808;5.670;2023-04-30T01:54:44;42.08;;;31.40;;
25125;SDS011;13106;50.808;5.670;2023-04-30T01:57:31;39.45;;;26.83;;
25125;SDS011;13106;50.808;5.670;2023-04-30T01:59:58;37.60;;;25.95;;
25125;SDS011;13106;50.808;5.670;2023-04-30T02:02:24;38.22;;;26.17;;
25125;SDS011;13106;50.808;5.670;2023-04-30T02:04:50;36.13;;;25.88;;
25125;SDS011;13106;50.808;5.670;2023-04-30T02:07:19;36.50;;;25.33;;
25125;SDS011;13106;50.808;5.670;2023-04-30T02:09:50;35.65;;;24.25;;
25125;SDS011;13106;50.808;5.670;2023-04-30T02:12:16;36.53;;;25.33;;
25125;SDS011;13106;50.808;5.670;2023-04-30T02:14:42;36.95;;;26.05;;
25125;SDS011;13106;50.808;5.670;2023-04-30T02:17:08;33.78;;;24.48;;
25125;SDS011;13106;50.808;5.670;2023-04-30T02:19:34;37.40;;;23.92;;
25125;SDS011;13106;50.808;5.670;2023-04-30T02:22:00;35.10;;;24.38;;
25125;SDS011;13106;50.808;5.670;2023-04-30T02:24:26;37.38;;;24.15;;
25125;SDS011;13106;50.808;5.670;2023-04-30T02:26:52;35.55;;;23.67;;
25125;SDS011;13106;50.808;5.670;2023-04-30T02:29:19;33.72;;;23.25;;
25125;SDS011;13106;50.808;5.670;2023-04-30T02:31:45;31.85;;;22.52;;
25125;SDS011;13106;50.808;5.670;2023-04-30T02:34:11;32.97;;;23.23;;
25125;SDS011;13106;50.808;5.670;2023-04-30T02:36:37;35.92;;;23.30;;
25125;SDS011;13106;50.808;5.670;2023-04-30T02:39:03;33.42;;;22.95;;
25125;SDS011;13106;50.808;5.670;2023-04-30T02:41:29;31.25;;;23.35;;
25125;SDS011;13106;50.808;5.670;2023-04-30T02:43:55;30.02;;;22.35;;
25125;SDS011;13106;50.808;5.670;2023-04-30T02:46:21;29.25;;;20.73;;
25125;SDS011;13106;50.808;5.670;2023-04-30T02:48:47;25.38;;;19.23;;
25125;SDS011;13106;50.808;5.670;2023-04-30T02:51:13;25.67;;;19.95;;
25125;SDS011;13106;50.808;5.670;2023-04-30T02:53:39;23.67;;;17.85;;
25125;SDS011;13106;50.808;5.670;2023-04-30T02:56:05;26.13;;;18.15;;
25125;SDS011;13106;50.808;5.670;2023-04-30T02:58:32;25.92;;;18.50;;
25125;SDS011;13106;50.808;5.670;2023-04-30T03:00:58;27.17;;;18.63;;
25125;SDS011;13106;50.808;5.670;2023-04-30T03:03:24;26.88;;;17.63;;
25125;SDS011;13106;50.808;5.670;2023-04-30T03:05:50;24.13;;;17.58;;
25125;SDS011;13106;50.808;5.670;2023-04-30T03:08:16;25.20;;;18.05;;
25125;SDS011;13106;50.808;5.670;2023-04-30T03:10:42;25.55;;;18.77;;
25125;SDS011;13106;50.808;5.670;2023-04-30T03:13:08;27.58;;;18.77;;
25125;SDS011;13106;50.808;5.670;2023-04-30T03:15:34;28.80;;;18.38;;
25125;SDS011;13106;50.808;5.670;2023-04-30T03:18:00;25.58;;;17.77;;
25125;SDS011;13106;50.808;5.670;2023-04-30T03:20:28;24.40;;;18.08;;
25125;SDS011;13106;50.808;5.670;2023-04-30T03:22:54;29.60;;;18.73;;
25125;SDS011;13106;50.808;5.670;2023-04-30T03:25:20;25.38;;;17.02;;
25125;SDS011;13106;50.808;5.670;2023-04-30T03:27:46;27.48;;;19.35;;
25125;SDS011;13106;50.808;5.670;2023-04-30T03:30:12;23.23;;;17.23;;
25125;SDS011;13106;50.808;5.670;2023-04-30T03:32:38;23.83;;;17.70;;
25125;SDS011;13106;50.808;5.670;2023-04-30T03:35:04;26.90;;;17.83;;
25125;SDS011;13106;50.808;5.670;2023-04-30T03:37:30;22.75;;;17.33;;
25125;SDS011;13106;50.808;5.670;2023-04-30T03:39:56;28.40;;;21.23;;
25125;SDS011;13106;50.808;5.670;2023-04-30T03:42:22;27.95;;;20.13;;
25125;SDS011;13106;50.808;5.670;2023-04-30T03:44:48;26.02;;;18.50;;
25125;SDS011;13106;50.808;5.670;2023-04-30T03:47:14;27.27;;;18.25;;
25125;SDS011;13106;50.808;5.670;2023-04-30T03:49:40;26.23;;;18.15;;
25125;SDS011;13106;50.808;5.670;2023-04-30T03:52:07;26.80;;;18.73;;
25125;SDS011;13106;50.808;5.670;2023-04-30T03:54:32;24.10;;;17.50;;
25125;SDS011;13106;50.808;5.670;2023-04-30T03:56:59;24.02;;;17.40;;
25125;SDS011;13106;50.808;5.670;2023-04-30T03:59:27;28.15;;;18.30;;
25125;SDS011;13106;50.808;5.670;2023-04-30T04:01:53;26.05;;;17.95;;
25125;SDS011;13106;50.808;5.670;2023-04-30T04:04:19;25.92;;;18.80;;
25125;SDS011;13106;50.808;5.670;2023-04-30T04:06:46;25.33;;;17.70;;
25125;SDS011;13106;50.808;5.670;2023-04-30T04:09:12;26.58;;;18.23;;
25125;SDS011;13106;50.808;5.670;2023-04-30T04:11:38;30.05;;;18.30;;
25125;SDS011;13106;50.808;5.670;2023-04-30T04:14:04;26.17;;;18.10;;
25125;SDS011;13106;50.808;5.670;2023-04-30T04:16:30;26.70;;;19.63;;
25125;SDS011;13106;50.808;5.670;2023-04-30T04:18:56;26.13;;;18.05;;
25125;SDS011;13106;50.808;5.670;2023-04-30T04:21:22;32.40;;;20.30;;
25125;SDS011;13106;50.808;5.670;2023-04-30T04:23:48;27.50;;;19.63;;
25125;SDS011;13106;50.808;5.670;2023-04-30T04:26:14;28.67;;;19.25;;
25125;SDS011;13106;50.808;5.670;2023-04-30T04:28:43;30.50;;;19.05;;
25125;SDS011;13106;50.808;5.670;2023-04-30T04:31:10;27.55;;;19.58;;
25125;SDS011;13106;50.808;5.670;2023-04-30T04:33:36;28.17;;;19.77;;
25125;SDS011;13106;50.808;5.670;2023-04-30T04:36:02;26.08;;;18.73;;
25125;SDS011;13106;50.808;5.670;2023-04-30T04:38:29;30.90;;;20.13;;
25125;SDS011;13106;50.808;5.670;2023-04-30T04:40:55;27.02;;;18.48;;
25125;SDS011;13106;50.808;5.670;2023-04-30T04:43:21;32.20;;;20.25;;
25125;SDS011;13106;50.808;5.670;2023-04-30T04:45:47;31.73;;;20.55;;
25125;SDS011;13106;50.808;5.670;2023-04-30T04:48:13;30.77;;;20.98;;
25125;SDS011;13106;50.808;5.670;2023-04-30T04:50:39;30.40;;;19.95;;
25125;SDS011;13106;50.808;5.670;2023-04-30T04:53:05;30.60;;;21.88;;
25125;SDS011;13106;50.808;5.670;2023-04-30T04:55:31;27.45;;;19.77;;
25125;SDS011;13106;50.808;5.670;2023-04-30T04:57:57;37.20;;;22.00;;
25125;SDS011;13106;50.808;5.670;2023-04-30T05:00:23;28.17;;;20.92;;
25125;SDS011;13106;50.808;5.670;2023-04-30T05:02:50;32.05;;;22.13;;
25125;SDS011;13106;50.808;5.670;2023-04-30T05:05:16;30.00;;;21.48;;
25125;SDS011;13106;50.808;5.670;2023-04-30T05:07:42;32.65;;;22.73;;
25125;SDS011;13106;50.808;5.670;2023-04-30T05:10:08;34.20;;;21.95;;
25125;SDS011;13106;50.808;5.670;2023-04-30T05:12:34;30.48;;;21.77;;
25125;SDS011;13106;50.808;5.670;2023-04-30T05:15:00;32.88;;;22.15;;
25125;SDS011;13106;50.808;5.670;2023-04-30T05:17:26;35.30;;;23.40;;
25125;SDS011;13106;50.808;5.670;2023-04-30T05:19:52;32.95;;;22.15;;
25125;SDS011;13106;50.808;5.670;2023-04-30T05:22:18;33.38;;;21.98;;
25125;SDS011;13106;50.808;5.670;2023-04-30T05:24:45;33.47;;;22.52;;
25125;SDS011;13106;50.808;5.670;2023-04-30T05:27:11;33.03;;;23.00;;
25125;SDS011;13106;50.808;5.670;2023-04-30T05:29:37;30.08;;;21.85;;
25125;SDS011;13106;50.808;5.670;2023-04-30T05:32:03;30.60;;;21.98;;
25125;SDS011;13106;50.808;5.670;2023-04-30T05:34:29;33.45;;;22.38;;
25125;SDS011;13106;50.808;5.670;2023-04-30T05:36:56;34.22;;;22.70;;
25125;SDS011;13106;50.808;5.670;2023-04-30T05:39:22;36.50;;;25.08;;
25125;SDS011;13106;50.808;5.670;2023-04-30T05:41:48;31.45;;;22.00;;
25125;SDS011;13106;50.808;5.670;2023-04-30T05:44:14;34.92;;;23.25;;
25125;SDS011;13106;50.808;5.670;2023-04-30T05:46:40;40.22;;;33.85;;
25125;SDS011;13106;50.808;5.670;2023-04-30T05:49:06;35.47;;;26.67;;
25125;SDS011;13106;50.808;5.670;2023-04-30T05:51:32;32.33;;;23.38;;
25125;SDS011;13106;50.808;5.670;2023-04-30T05:53:58;34.42;;;22.67;;
25125;SDS011;13106;50.808;5.670;2023-04-30T05:56:24;32.10;;;22.48;;
25125;SDS011;13106;50.808;5.670;2023-04-30T05:58:51;32.00;;;22.70;;
25125;SDS011;13106;50.808;5.670;2023-04-30T06:01:18;28.88;;;19.50;;
25125;SDS011;13106;50.808;5.670;2023-04-30T06:03:44;30.63;;;22.02;;
25125;SDS011;13106;50.808;5.670;2023-04-30T06:06:10;30.95;;;21.30;;
25125;SDS011;13106;50.808;5.670;2023-04-30T06:08:36;31.65;;;20.58;;
25125;SDS011;13106;50.808;5.670;2023-04-30T06:11:06;37.35;;;22.10;;
25125;SDS011;13106;50.808;5.670;2023-04-30T06:13:32;29.33;;;21.25;;
25125;SDS011;13106;50.808;5.670;2023-04-30T06:15:58;31.40;;;22.35;;
25125;SDS011;13106;50.808;5.670;2023-04-30T06:18:24;29.98;;;21.38;;
25125;SDS011;13106;50.808;5.670;2023-04-30T06:20:50;29.02;;;20.77;;
25125;SDS011;13106;50.808;5.670;2023-04-30T06:23:16;28.63;;;20.35;;
25125;SDS011;13106;50.808;5.670;2023-04-30T06:25:42;31.27;;;21.10;;
25125;SDS011;13106;50.808;5.670;2023-04-30T06:28:08;31.15;;;18.95;;
25125;SDS011;13106;50.808;5.670;2023-04-30T06:30:35;31.35;;;19.75;;
25125;SDS011;13106;50.808;5.670;2023-04-30T06:33:01;32.00;;;20.98;;
25125;SDS011;13106;50.808;5.670;2023-04-30T06:35:27;30.42;;;19.98;;
25125;SDS011;13106;50.808;5.670;2023-04-30T06:37:53;29.42;;;20.42;;
25125;SDS011;13106;50.808;5.670;2023-04-30T06:40:19;26.33;;;18.17;;
25125;SDS011;13106;50.808;5.670;2023-04-30T06:42:45;29.50;;;20.25;;
25125;SDS011;13106;50.808;5.670;2023-04-30T06:45:11;27.35;;;19.80;;
25125;SDS011;13106;50.808;5.670;2023-04-30T06:47:39;29.80;;;20.17;;
25125;SDS011;13106;50.808;5.670;2023-04-30T06:50:06;25.27;;;19.30;;
25125;SDS011;13106;50.808;5.670;2023-04-30T06:52:32;28.58;;;17.63;;
25125;SDS011;13106;50.808;5.670;2023-04-30T06:54:59;33.55;;;20.35;;
25125;SDS011;13106;50.808;5.670;2023-04-30T06:57:25;22.90;;;17.40;;
25125;SDS011;13106;50.808;5.670;2023-04-30T06:59:52;31.10;;;20.10;;
25125;SDS011;13106;50.808;5.670;2023-04-30T07:02:18;27.35;;;21.13;;
25125;SDS011;13106;50.808;5.670;2023-04-30T07:04:44;28.08;;;20.75;;
25125;SDS011;13106;50.808;5.670;2023-04-30T07:07:10;27.05;;;20.15;;
25125;SDS011;13106;50.808;5.670;2023-04-30T07:09:36;26.52;;;20.67;;
25125;SDS011;13106;50.808;5.670;2023-04-30T07:12:02;28.55;;;21.65;;
25125;SDS011;13106;50.808;5.670;2023-04-30T07:14:28;29.65;;;20.05;;
25125;SDS011;13106;50.808;5.670;2023-04-30T07:16:54;27.70;;;19.73;;
25125;SDS011;13106;50.808;5.670;2023-04-30T07:19:20;28.85;;;21.50;;
25125;SDS011;13106;50.808;5.670;2023-04-30T07:21:47;30.42;;;20.75;;
25125;SDS011;13106;50.808;5.670;2023-04-30T07:24:13;29.25;;;20.33;;
25125;SDS011;13106;50.808;5.670;2023-04-30T07:26:39;25.55;;;19.55;;
25125;SDS011;13106;50.808;5.670;2023-04-30T07:29:06;28.65;;;21.08;;
25125;SDS011;13106;50.808;5.670;2023-04-30T07:31:32;28.30;;;21.13;;
25125;SDS011;13106;50.808;5.670;2023-04-30T07:33:58;25.45;;;19.77;;
25125;SDS011;13106;50.808;5.670;2023-04-30T07:36:24;27.50;;;21.42;;
25125;SDS011;13106;50.808;5.670;2023-04-30T07:38:51;26.55;;;20.80;;
25125;SDS011;13106;50.808;5.670;2023-04-30T07:41:17;30.50;;;21.88;;
25125;SDS011;13106;50.808;5.670;2023-04-30T07:43:43;29.85;;;22.42;;
25125;SDS011;13106;50.808;5.670;2023-04-30T07:46:10;27.27;;;20.27;;
25125;SDS011;13106;50.808;5.670;2023-04-30T07:48:36;30.88;;;23.67;;
25125;SDS011;13106;50.808;5.670;2023-04-30T07:51:02;30.35;;;20.98;;
25125;SDS011;13106;50.808;5.670;2023-04-30T07:53:31;28.15;;;21.23;;
25125;SDS011;13106;50.808;5.670;2023-04-30T07:55:57;24.10;;;19.23;;
25125;SDS011;13106;50.808;5.670;2023-04-30T07:58:23;27.92;;;19.90;;
25125;SDS011;13106;50.808;5.670;2023-04-30T08:00:49;28.48;;;20.77;;
25125;SDS011;13106;50.808;5.670;2023-04-30T08:03:15;28.20;;;20.30;;
25125;SDS011;13106;50.808;5.670;2023-04-30T08:05:41;27.85;;;20.50;;
25125;SDS011;13106;50.808;5.670;2023-04-30T08:08:07;27.73;;;20.65;;
25125;SDS011;13106;50.808;5.670;2023-04-30T08:10:34;24.67;;;18.23;;
25125;SDS011;13106;50.808;5.670;2023-04-30T08:13:02;26.90;;;17.73;;
25125;SDS011;13106;50.808;5.670;2023-04-30T08:15:28;21.58;;;16.30;;
25125;SDS011;13106;50.808;5.670;2023-04-30T08:17:54;23.88;;;16.02;;
25125;SDS011;13106;50.808;5.670;2023-04-30T08:20:20;20.52;;;16.50;;
25125;SDS011;13106;50.808;5.670;2023-04-30T08:22:50;19.80;;;16.80;;
25125;SDS011;13106;50.808;5.670;2023-04-30T08:25:16;20.17;;;16.35;;
25125;SDS011;13106;50.808;5.670;2023-04-30T08:27:42;22.35;;;16.13;;
25125;SDS011;13106;50.808;5.670;2023-04-30T08:30:08;22.83;;;17.45;;
25125;SDS011;13106;50.808;5.670;2023-04-30T08:32:35;23.83;;;17.00;;
25125;SDS011;13106;50.808;5.670;2023-04-30T08:35:02;20.27;;;15.63;;
25125;SDS011;13106;50.808;5.670;2023-04-30T08:37:28;23.38;;;15.32;;
25125;SDS011;13106;50.808;5.670;2023-04-30T08:39:54;20.48;;;15.30;;
25125;SDS011;13106;50.808;5.670;2023-04-30T08:42:20;23.05;;;15.50;;
25125;SDS011;13106;50.808;5.670;2023-04-30T08:44:49;19.23;;;14.65;;
25125;SDS011;13106;50.808;5.670;2023-04-30T08:47:16;20.70;;;14.35;;
25125;SDS011;13106;50.808;5.670;2023-04-30T08:49:42;21.88;;;15.30;;
25125;SDS011;13106;50.808;5.670;2023-04-30T08:52:08;19.08;;;12.95;;
25125;SDS011;13106;50.808;5.670;2023-04-30T08:54:35;15.63;;;13.45;;
25125;SDS011;13106;50.808;5.670;2023-04-30T08:57:01;21.80;;;13.82;;
25125;SDS011;13106;50.808;5.670;2023-04-30T08:59:28;18.70;;;13.98;;
25125;SDS011;13106;50.808;5.670;2023-04-30T09:01:54;18.40;;;13.70;;
25125;SDS011;13106;50.808;5.670;2023-04-30T09:04:20;21.73;;;15.05;;
25125;SDS011;13106;50.808;5.670;2023-04-30T09:06:47;16.58;;;12.25;;
25125;SDS011;13106;50.808;5.670;2023-04-30T09:09:13;14.35;;;11.68;;
25125;SDS011;13106;50.808;5.670;2023-04-30T09:11:40;15.60;;;12.00;;
25125;SDS011;13106;50.808;5.670;2023-04-30T09:14:06;14.23;;;10.63;;
25125;SDS011;13106;50.808;5.670;2023-04-30T09:16:45;13.82;;;10.27;;
25125;SDS011;13106;50.808;5.670;2023-04-30T09:19:21;12.10;;;8.77;;
25125;SDS011;13106;50.808;5.670;2023-04-30T09:21:48;11.15;;;8.82;;
25125;SDS011;13106;50.808;5.670;2023-04-30T09:24:14;13.00;;;7.82;;
25125;SDS011;13106;50.808;5.670;2023-04-30T09:26:41;11.25;;;8.80;;
25125;SDS011;13106;50.808;5.670;2023-04-30T09:29:07;11.30;;;7.63;;
25125;SDS011;13106;50.808;5.670;2023-04-30T09:31:34;10.45;;;7.88;;
25125;SDS011;13106;50.808;5.670;2023-04-30T09:34:01;8.68;;;6.78;;
25125;SDS011;13106;50.808;5.670;2023-04-30T09:36:27;7.88;;;6.13;;
25125;SDS011;13106;50.808;5.670;2023-04-30T09:38:53;6.25;;;5.28;;
25125;SDS011;13106;50.808;5.670;2023-04-30T09:41:26;9.80;;;6.35;;
25125;SDS011;13106;50.808;5.670;2023-04-30T09:43:53;8.30;;;5.88;;
25125;SDS011;13106;50.808;5.670;2023-04-30T09:46:20;9.48;;;6.10;;
25125;SDS011;13106;50.808;5.670;2023-04-30T09:48:55;7.47;;;5.18;;
25125;SDS011;13106;50.808;5.670;2023-04-30T09:51:21;6.82;;;4.57;;
25125;SDS011;13106;50.808;5.670;2023-04-30T09:53:47;8.65;;;5.53;;
25125;SDS011;13106;50.808;5.670;2023-04-30T09:56:13;6.78;;;4.93;;
25125;SDS011;13106;50.808;5.670;2023-04-30T09:58:42;7.50;;;4.85;;
25125;SDS011;13106;50.808;5.670;2023-04-30T10:01:09;4.93;;;4.05;;
25125;SDS011;13106;50.808;5.670;2023-04-30T10:03:36;12.15;;;3.58;;
25125;SDS011;13106;50.808;5.670;2023-04-30T10:06:05;3.53;;;3.20;;
25125;SDS011;13106;50.808;5.670;2023-04-30T10:08:39;5.10;;;3.75;;
25125;SDS011;13106;50.808;5.670;2023-04-30T10:11:06;3.38;;;2.65;;
25125;SDS011;13106;50.808;5.670;2023-04-30T10:13:56;3.97;;;2.20;;
25125;SDS011;13106;50.808;5.670;2023-04-30T10:18:45;5.72;;;3.20;;
25125;SDS011;13106;50.808;5.670;2023-04-30T10:21:15;3.63;;;3.17;;
25125;SDS011;13106;50.808;5.670;2023-04-30T10:23:42;3.95;;;2.25;;
25125;SDS011;13106;50.808;5.670;2023-04-30T10:26:09;3.90;;;2.60;;
25125;SDS011;13106;50.808;5.670;2023-04-30T10:28:36;3.47;;;2.65;;
25125;SDS011;13106;50.808;5.670;2023-04-30T10:31:03;5.55;;;3.42;;
25125;SDS011;13106;50.808;5.670;2023-04-30T10:36:17;3.67;;;2.90;;
25125;SDS011;13106;50.808;5.670;2023-04-30T10:38:47;3.78;;;2.25;;
25125;SDS011;13106;50.808;5.670;2023-04-30T10:41:13;3.80;;;2.85;;
25125;SDS011;13106;50.808;5.670;2023-04-30T10:43:39;2.78;;;2.50;;
25125;SDS011;13106;50.808;5.670;2023-04-30T10:46:05;5.47;;;3.20;;
25125;SDS011;13106;50.808;5.670;2023-04-30T10:48:33;3.17;;;2.80;;
25125;SDS011;13106;50.808;5.670;2023-04-30T10:50:59;5.40;;;3.25;;
25125;SDS011;13106;50.808;5.670;2023-04-30T10:53:28;5.20;;;3.20;;
25125;SDS011;13106;50.808;5.670;2023-04-30T10:58:34;3.27;;;2.87;;
25125;SDS011;13106;50.808;5.670;2023-04-30T11:03:29;2.35;;;1.98;;
25125;SDS011;13106;50.808;5.670;2023-04-30T11:05:56;3.78;;;2.75;;
25125;SDS011;13106;50.808;5.670;2023-04-30T11:08:32;3.00;;;2.70;;
25125;SDS011;13106;50.808;5.670;2023-04-30T11:10:58;5.00;;;2.90;;
25125;SDS011;13106;50.808;5.670;2023-04-30T11:13:25;3.03;;;2.28;;
25125;SDS011;13106;50.808;5.670;2023-04-30T11:15:52;4.85;;;2.33;;
25125;SDS011;13106;50.808;5.670;2023-04-30T11:18:18;3.90;;;1.95;;
25125;SDS011;13106;50.808;5.670;2023-04-30T11:20:50;3.00;;;1.77;;
25125;SDS011;13106;50.808;5.670;2023-04-30T11:23:19;5.07;;;1.92;;
25125;SDS011;13106;50.808;5.670;2023-04-30T11:25:47;4.38;;;2.20;;
25125;SDS011;13106;50.808;5.670;2023-04-30T11:28:14;3.30;;;2.30;;
25125;SDS011;13106;50.808;5.670;2023-04-30T11:30:49;2.78;;;1.88;;
25125;SDS011;13106;50.808;5.670;2023-04-30T11:33:15;3.00;;;2.20;;
25125;SDS011;13106;50.808;5.670;2023-04-30T11:35:42;3.00;;;2.47;;
25125;SDS011;13106;50.808;5.670;2023-04-30T11:38:08;3.08;;;1.50;;
25125;SDS011;13106;50.808;5.670;2023-04-30T11:40:35;5.25;;;1.85;;
25125;SDS011;13106;50.808;5.670;2023-04-30T11:43:01;3.75;;;2.08;;
25125;SDS011;13106;50.808;5.670;2023-04-30T11:45:28;2.80;;;1.48;;
25125;SDS011;13106;50.808;5.670;2023-04-30T11:47:54;2.45;;;1.55;;
25125;SDS011;13106;50.808;5.670;2023-04-30T11:50:25;2.03;;;1.80;;
25125;SDS011;13106;50.808;5.670;2023-04-30T11:52:53;4.00;;;2.50;;
25125;SDS011;13106;50.808;5.670;2023-04-30T11:55:21;3.17;;;1.83;;
25125;SDS011;13106;50.808;5.670;2023-04-30T11:57:48;1.80;;;1.42;;
25125;SDS011;13106;50.808;5.670;2023-04-30T12:00:15;1.40;;;1.20;;
25125;SDS011;13106;50.808;5.670;2023-04-30T12:02:42;2.92;;;1.50;;
25125;SDS011;13106;50.808;5.670;2023-04-30T12:05:19;1.67;;;1.30;;
25125;SDS011;13106;50.808;5.670;2023-04-30T12:07:50;2.20;;;1.58;;
25125;SDS011;13106;50.808;5.670;2023-04-30T12:10:20;1.85;;;1.20;;
25125;SDS011;13106;50.808;5.670;2023-04-30T12:12:46;2.67;;;1.50;;
25125;SDS011;13106;50.808;5.670;2023-04-30T12:15:14;1.83;;;1.02;;
25125;SDS011;13106;50.808;5.670;2023-04-30T12:17:40;3.58;;;1.50;;
25125;SDS011;13106;50.808;5.670;2023-04-30T12:20:07;1.88;;;1.67;;
25125;SDS011;13106;50.808;5.670;2023-04-30T12:22:33;1.50;;;1.40;;
25125;SDS011;13106;50.808;5.670;2023-04-30T12:25:04;2.42;;;2.00;;
25125;SDS011;13106;50.808;5.670;2023-04-30T12:27:31;2.92;;;2.08;;
25125;SDS011;13106;50.808;5.670;2023-04-30T12:30:06;3.30;;;2.60;;
25125;SDS011;13106;50.808;5.670;2023-04-30T12:32:42;4.63;;;2.90;;
25125;SDS011;13106;50.808;5.670;2023-04-30T12:35:14;5.18;;;3.28;;
25125;SDS011;13106;50.808;5.670;2023-04-30T12:37:41;3.83;;;3.47;;
25125;SDS011;13106;50.808;5.670;2023-04-30T12:40:07;5.93;;;3.40;;
25125;SDS011;13106;50.808;5.670;2023-04-30T12:42:34;4.90;;;3.60;;
25125;SDS011;13106;50.808;5.670;2023-04-30T12:45:00;3.83;;;2.92;;
25125;SDS011;13106;50.808;5.670;2023-04-30T12:47:26;4.40;;;2.88;;
25125;SDS011;13106;50.808;5.670;2023-04-30T12:49:52;3.25;;;2.30;;
25125;SDS011;13106;50.808;5.670;2023-04-30T12:52:21;4.18;;;2.63;;
25125;SDS011;13106;50.808;5.670;2023-04-30T12:54:47;3.70;;;2.97;;
25125;SDS011;13106;50.808;5.670;2023-04-30T12:57:13;3.90;;;2.92;;
25125;SDS011;13106;50.808;5.670;2023-04-30T13:02:18;4.20;;;3.30;;
25125;SDS011;13106;50.808;5.670;2023-04-30T13:04:47;4.47;;;2.95;;
25125;SDS011;13106;50.808;5.670;2023-04-30T13:07:14;6.03;;;3.40;;
25125;SDS011;13106;50.808;5.670;2023-04-30T13:09:40;4.00;;;3.42;;
25125;SDS011;13106;50.808;5.670;2023-04-30T13:12:06;5.18;;;3.53;;
25125;SDS011;13106;50.808;5.670;2023-04-30T13:14:33;4.05;;;2.90;;
25125;SDS011;13106;50.808;5.670;2023-04-30T13:17:00;5.88;;;3.13;;
25125;SDS011;13106;50.808;5.670;2023-04-30T13:19:28;5.60;;;3.10;;
25125;SDS011;13106;50.808;5.670;2023-04-30T13:21:55;3.38;;;2.70;;
25125;SDS011;13106;50.808;5.670;2023-04-30T13:24:21;6.22;;;3.30;;
25125;SDS011;13106;50.808;5.670;2023-04-30T13:26:47;4.32;;;3.70;;
25125;SDS011;13106;50.808;5.670;2023-04-30T13:29:14;3.67;;;3.00;;
25125;SDS011;13106;50.808;5.670;2023-04-30T13:31:40;6.72;;;3.03;;
25125;SDS011;13106;50.808;5.670;2023-04-30T13:34:09;3.95;;;3.17;;
25125;SDS011;13106;50.808;5.670;2023-04-30T13:36:35;4.55;;;3.35;;
25125;SDS011;13106;50.808;5.670;2023-04-30T13:39:01;3.13;;;2.50;;
25125;SDS011;13106;50.808;5.670;2023-04-30T13:41:28;4.40;;;2.80;;
25125;SDS011;13106;50.808;5.670;2023-04-30T13:43:54;4.30;;;3.00;;
25125;SDS011;13106;50.808;5.670;2023-04-30T13:46:20;3.25;;;2.63;;
25125;SDS011;13106;50.808;5.670;2023-04-30T13:48:46;4.65;;;3.47;;
25125;SDS011;13106;50.808;5.670;2023-04-30T13:51:14;3.63;;;3.13;;
25125;SDS011;13106;50.808;5.670;2023-04-30T13:53:40;5.03;;;3.13;;
25125;SDS011;13106;50.808;5.670;2023-04-30T13:56:06;4.70;;;3.13;;
25125;SDS011;13106;50.808;5.670;2023-04-30T13:58:32;4.70;;;3.08;;
25125;SDS011;13106;50.808;5.670;2023-04-30T14:00:58;3.28;;;2.70;;
25125;SDS011;13106;50.808;5.670;2023-04-30T14:03:24;6.13;;;3.15;;
25125;SDS011;13106;50.808;5.670;2023-04-30T14:05:50;5.40;;;2.80;;
25125;SDS011;13106;50.808;5.670;2023-04-30T14:08:16;5.05;;;3.33;;
25125;SDS011;13106;50.808;5.670;2023-04-30T14:10:42;3.75;;;2.88;;
25125;SDS011;13106;50.808;5.670;2023-04-30T14:13:08;5.63;;;3.20;;
25125;SDS011;13106;50.808;5.670;2023-04-30T14:15:34;3.17;;;2.67;;
25125;SDS011;13106;50.808;5.670;2023-04-30T14:18:02;3.60;;;2.78;;
25125;SDS011;13106;50.808;5.670;2023-04-30T14:20:28;3.47;;;2.92;;
25125;SDS011;13106;50.808;5.670;2023-04-30T14:22:54;3.85;;;3.05;;
25125;SDS011;13106;50.808;5.670;2023-04-30T14:25:20;3.40;;;3.10;;
25125;SDS011;13106;50.808;5.670;2023-04-30T14:27:46;3.67;;;3.30;;
25125;SDS011;13106;50.808;5.670;2023-04-30T14:30:12;3.00;;;2.70;;
25125;SDS011;13106;50.808;5.670;2023-04-30T14:32:38;4.03;;;2.38;;
25125;SDS011;13106;50.808;5.670;2023-04-30T14:35:05;4.90;;;2.30;;
25125;SDS011;13106;50.808;5.670;2023-04-30T14:37:31;3.28;;;2.50;;
25125;SDS011;13106;50.808;5.670;2023-04-30T14:39:57;3.17;;;2.60;;
25125;SDS011;13106;50.808;5.670;2023-04-30T14:42:25;6.32;;;2.47;;
25125;SDS011;13106;50.808;5.670;2023-04-30T14:44:51;3.22;;;1.77;;
25125;SDS011;13106;50.808;5.670;2023-04-30T14:47:18;2.65;;;2.10;;
25125;SDS011;13106;50.808;5.670;2023-04-30T14:49:45;2.38;;;2.13;;
25125;SDS011;13106;50.808;5.670;2023-04-30T14:52:12;3.25;;;2.15;;
25125;SDS011;13106;50.808;5.670;2023-04-30T14:54:38;2.55;;;1.80;;
25125;SDS011;13106;50.808;5.670;2023-04-30T14:57:04;1.98;;;1.88;;
25125;SDS011;13106;50.808;5.670;2023-04-30T14:59:30;4.10;;;2.40;;
25125;SDS011;13106;50.808;5.670;2023-04-30T15:01:58;2.55;;;1.63;;
25125;SDS011;13106;50.808;5.670;2023-04-30T15:04:24;3.15;;;1.75;;